| time (UTC) | temp C | wind direction | speed KPH | gust KPH | rain 1hr cm | rain 24hr cm | rain mn cm | humidity % | barometer mb |
| 20260904052517 | 20 | 248 | 11.3 | 25.7 | 0.00 | 0.00 | 0.00 | 92 | 1012.9 |
| 20260904051517 | 20 | 248 | 12.9 | 32.2 | 0.00 | 0.00 | 0.00 | 92 | 1012.9 |
| 20260904050517 | 20 | 248 | 16.1 | 30.6 | 0.00 | 0.00 | 0.00 | 91 | 1012.9 |
| 20260904045537 | 20 | 248 | 17.7 | 35.4 | 0.00 | 0.00 | 0.00 | 91 | 1012.9 |
| 20260904044518 | 20 | 248 | 16.1 | 29.0 | 0.00 | 0.00 | 0.00 | 91 | 1013.1 |
| 20260904043518 | 20 | 225 | 14.5 | 27.4 | 0.00 | 0.00 | 0.00 | 91 | 1013.1 |
| 20260904042517 | 20 | 225 | 16.1 | 33.8 | 0.00 | 0.00 | 0.00 | 91 | 1013.1 |
| 20260904041517 | 20 | 248 | 19.3 | 35.4 | 0.00 | 0.00 | 0.00 | 91 | 1013.2 |
| 20260904040518 | 20 | 225 | 16.1 | 35.4 | 0.00 | 0.00 | 0.00 | 91 | 1013.4 |
| 20260904035517 | 20 | 248 | 17.7 | 35.4 | 0.00 | 0.00 | 0.00 | 92 | 1013.6 |
| 20260904034544 | 20 | 225 | 17.7 | 33.8 | 0.00 | 0.00 | 0.00 | 92 | 1013.8 |
| 20260904033518 | 20 | 248 | 14.5 | 29.0 | 0.00 | 0.00 | 0.00 | 92 | 1014.0 |
| 20260904032518 | 20 | 225 | 14.5 | 27.4 | 0.00 | 0.00 | 0.00 | 91 | 1014.1 |
| 20260904031518 | 20 | 248 | 17.7 | 32.2 | 0.00 | 0.00 | 0.00 | 91 | 1014.2 |
| 20260904030518 | 20 | 225 | 16.1 | 25.7 | 0.00 | 0.00 | 0.00 | 91 | 1014.2 |
| 20260904025518 | 20 | 248 | 17.7 | 32.2 | 0.00 | 0.00 | 0.00 | 91 | 1014.3 |
| 20260904024517 | 20 | 248 | 19.3 | 37.0 | 0.00 | 0.00 | 0.00 | 91 | 1014.3 |
| 20260904023517 | 20 | 248 | 12.9 | 22.5 | 0.00 | 0.00 | 0.00 | 92 | 1014.3 |
| 20260904022517 | 20 | 248 | 14.5 | 24.1 | 0.00 | 0.00 | 0.00 | 92 | 1014.4 |
| 20260904021517 | 20 | 248 | 14.5 | 25.7 | 0.00 | 0.00 | 0.00 | 92 | 1014.6 |
| 20260904020516 | 20 | 248 | 9.7 | 20.9 | 0.00 | 0.00 | 0.00 | 92 | 1014.9 |
| 20260904015517 | 20 | 248 | 11.3 | 22.5 | 0.00 | 0.00 | 0.00 | 92 | 1015.0 |
| 20260904014518 | 20 | 248 | 14.5 | 25.7 | 0.00 | 0.00 | 0.00 | 92 | 1015.1 |
| 20260904013522 | 20 | 225 | 14.5 | 29.0 | 0.00 | 0.00 | 0.00 | 93 | 1015.1 |
| 20260904012516 | 20 | 248 | 16.1 | 30.6 | 0.00 | 0.00 | 0.00 | 93 | 1015.3 |
| 20260904011516 | 20 | 248 | 14.5 | 33.8 | 0.00 | 0.00 | 0.00 | 93 | 1015.2 |
| 20260904010516 | 20 | 225 | 14.5 | 24.1 | 0.00 | 0.00 | 0.00 | 92 | 1015.3 |
| 20260904005517 | 20 | 225 | 14.5 | 30.6 | 0.00 | 0.00 | 0.00 | 92 | 1015.5 |
| 20260904004518 | 20 | 225 | 11.3 | 24.1 | 0.00 | 0.00 | 0.00 | 92 | 1015.5 |
| 20260904003518 | 20 | 248 | 14.5 | 25.7 | 0.00 | 0.00 | 0.00 | 92 | 1015.9 |
| 20260904002516 | 20 | 248 | 14.5 | 30.6 | 0.00 | 0.00 | 0.00 | 92 | 1015.9 |
| 20260904001518 | 20 | 225 | 14.5 | 22.5 | 0.00 | 0.00 | 0.00 | 92 | 1016.0 |
| 20260904000517 | 20 | 248 | 9.7 | 19.3 | 0.00 | 0.00 | 0.00 | 92 | 1016.0 |
| 20260903235536 | 20 | 248 | 14.5 | 38.6 | 0.00 | 0.00 | 0.00 | 91 | 1016.1 |
| 20260903234518 | 20 | 225 | 12.9 | 25.7 | 0.00 | 0.00 | 0.00 | 91 | 1016.1 |
| 20260903233538 | 20 | 225 | 16.1 | 27.4 | 0.00 | 0.00 | 0.00 | 91 | 1016.0 |
| 20260903232518 | 20 | 225 | 17.7 | 32.2 | 0.00 | 0.00 | 0.00 | 91 | 1016.1 |
| 20260903231516 | 20 | 225 | 14.5 | 27.4 | 0.00 | 0.00 | 0.00 | 91 | 1016.2 |
| 20260903230538 | 20 | 225 | 14.5 | 24.1 | 0.00 | 0.00 | 0.00 | 91 | 1016.2 |
| 20260903225516 | 20 | 225 | 14.5 | 32.2 | 0.00 | 0.00 | 0.00 | 91 | 1016.4 |
| 20260903224518 | 20 | 248 | 14.5 | 30.6 | 0.00 | 0.00 | 0.00 | 91 | 1016.3 |
| 20260903223518 | 20 | 225 | 8.0 | 14.5 | 0.00 | 0.00 | 0.00 | 91 | 1016.5 |
| 20260903222516 | 20 | 225 | 6.4 | 16.1 | 0.00 | 0.00 | 0.00 | 91 | 1016.6 |
| 20260903221518 | 20 | 248 | 11.3 | 20.9 | 0.00 | 0.00 | 0.00 | 90 | 1016.7 |
| 20260903220516 | 20 | 225 | 6.4 | 16.1 | 0.00 | 0.00 | 0.00 | 90 | 1016.9 |
| 20260903215518 | 20 | 248 | 8.0 | 17.7 | 0.00 | 0.00 | 0.00 | 90 | 1017.0 |
| 20260903214518 | 20 | 225 | 8.0 | 17.7 | 0.00 | 0.00 | 0.00 | 90 | 1017.1 |
| 20260903213516 | 20 | 248 | 9.7 | 20.9 | 0.00 | 0.00 | 0.00 | 90 | 1017.4 |
| 20260903212518 | 20 | 248 | 9.7 | 25.7 | 0.00 | 0.00 | 0.00 | 90 | 1017.5 |
| 20260903211516 | 20 | 248 | 9.7 | 24.1 | 0.00 | 0.00 | 0.00 | 90 | 1017.6 |
| 20260903210518 | 20 | 248 | 11.3 | 24.1 | 0.00 | 0.00 | 0.00 | 90 | 1017.7 |
| 20260903205516 | 20 | 225 | 12.9 | 27.4 | 0.00 | 0.00 | 0.00 | 90 | 1017.5 |
| 20260903204518 | 20 | 225 | 12.9 | 22.5 | 0.00 | 0.00 | 0.00 | 90 | 1017.4 |
| 20260903203516 | 20 | 248 | 12.9 | 25.7 | 0.00 | 0.00 | 0.00 | 90 | 1017.2 |
| 20260903202518 | 20 | 248 | 12.9 | 24.1 | 0.00 | 0.00 | 0.00 | 90 | 1017.2 |
| 20260903201536 | 20 | 248 | 12.9 | 25.7 | 0.00 | 0.00 | 0.00 | 90 | 1017.5 |
| 20260903200538 | 20 | 248 | 11.3 | 22.5 | 0.00 | 0.00 | 0.00 | 90 | 1017.6 |
| 20260903195536 | 20 | 248 | 9.7 | 17.7 | 0.00 | 0.00 | 0.00 | 90 | 1017.6 |
| 20260903194516 | 20 | 225 | 12.9 | 29.0 | 0.00 | 0.00 | 0.00 | 90 | 1017.6 |
| 20260903193537 | 20 | 248 | 14.5 | 25.7 | 0.00 | 0.03 | 0.00 | 90 | 1017.6 |
| 20260903192519 | 20 | 225 | 9.7 | 19.3 | 0.00 | 0.03 | 0.00 | 90 | 1017.7 |
| 20260903191516 | 20 | 248 | 12.9 | 29.0 | 0.00 | 0.03 | 0.00 | 90 | 1017.7 |
| 20260903190601 | 21 | 248 | 11.3 | 25.7 | 0.00 | 0.03 | 0.00 | 89 | 1017.7 |
| 20260903185516 | 21 | 248 | 11.3 | 25.7 | 0.00 | 0.03 | 0.00 | 89 | 1017.7 |
| 20260903184517 | 21 | 248 | 14.5 | 32.2 | 0.00 | 0.03 | 0.00 | 89 | 1017.6 |
| 20260903183518 | 21 | 225 | 11.3 | 24.1 | 0.00 | 0.03 | 0.00 | 89 | 1017.6 |
| 20260903182536 | 21 | 248 | 11.3 | 20.9 | 0.00 | 0.03 | 0.00 | 88 | 1017.7 |
| 20260903181536 | 21 | 225 | 11.3 | 24.1 | 0.00 | 0.03 | 0.00 | 88 | 1017.8 |
| 20260903180517 | 21 | 248 | 16.1 | 27.4 | 0.00 | 0.03 | 0.00 | 88 | 1017.7 |
| 20260903175517 | 21 | 248 | 16.1 | 27.4 | 0.00 | 0.05 | 0.00 | 87 | 1017.7 |
| 20260903174537 | 21 | 248 | 11.3 | 19.3 | 0.00 | 0.05 | 0.00 | 87 | 1017.8 |
| 20260903173516 | 21 | 248 | 14.5 | 27.4 | 0.00 | 0.05 | 0.00 | 86 | 1017.7 |
| 20260903172516 | 22 | 248 | 12.9 | 24.1 | 0.00 | 0.05 | 0.00 | 85 | 1017.6 |
| 20260903171639 | 22 | 248 | 11.3 | 20.9 | 0.00 | 0.05 | 0.00 | 84 | 1017.6 |
| 20260903170517 | 22 | 248 | 9.7 | 22.5 | 0.00 | 0.05 | 0.00 | 84 | 1017.8 |
| 20260903165516 | 22 | 248 | 12.9 | 27.4 | 0.00 | 0.05 | 0.00 | 84 | 1017.7 |
| 20260903164517 | 22 | 248 | 17.7 | 33.8 | 0.00 | 0.05 | 0.00 | 83 | 1017.7 |
| 20260903163516 | 22 | 248 | 16.1 | 30.6 | 0.00 | 0.05 | 0.00 | 83 | 1017.8 |
| 20260903162516 | 22 | 248 | 16.1 | 27.4 | 0.00 | 0.05 | 0.00 | 83 | 1017.8 |
| 20260903161517 | 22 | 248 | 16.1 | 29.0 | 0.00 | 0.05 | 0.00 | 83 | 1017.8 |
| 20260903160517 | 23 | 248 | 16.1 | 30.6 | 0.00 | 0.08 | 0.00 | 82 | 1017.8 |
| 20260903155516 | 23 | 248 | 12.9 | 22.5 | 0.00 | 0.08 | 0.00 | 83 | 1018.1 |
| 20260903154515 | 22 | 248 | 12.9 | 25.7 | 0.00 | 0.08 | 0.00 | 83 | 1018.1 |
| 20260903153517 | 22 | 225 | 12.9 | 25.7 | 0.00 | 0.08 | 0.00 | 83 | 1018.2 |
| 20260903152516 | 22 | 248 | 16.1 | 29.0 | 0.00 | 0.08 | 0.00 | 83 | 1018.3 |
| 20260903151515 | 22 | 248 | 16.1 | 29.0 | 0.00 | 0.08 | 0.00 | 82 | 1018.4 |
| 20260903150516 | 23 | 248 | 19.3 | 35.4 | 0.00 | 0.08 | 0.00 | 82 | 1018.4 |
| 20260903145515 | 23 | 225 | 12.9 | 30.6 | 0.00 | 0.08 | 0.00 | 82 | 1018.4 |
| 20260903144515 | 23 | 248 | 17.7 | 30.6 | 0.00 | 0.08 | 0.00 | 80 | 1018.3 |
| 20260903143515 | 23 | 225 | 14.5 | 32.2 | 0.00 | 0.08 | 0.00 | 81 | 1018.4 |
| 20260903142515 | 23 | 248 | 19.3 | 32.2 | 0.00 | 0.08 | 0.00 | 81 | 1018.3 |
| 20260903141515 | 23 | 225 | 16.1 | 29.0 | 0.00 | 0.08 | 0.00 | 82 | 1018.3 |
| 20260903140517 | 23 | 248 | 16.1 | 29.0 | 0.00 | 0.08 | 0.00 | 83 | 1018.4 |
| 20260903135535 | 22 | 248 | 16.1 | 32.2 | 0.00 | 0.08 | 0.00 | 83 | 1018.5 |
| 20260903134515 | 22 | 225 | 14.5 | 27.4 | 0.00 | 0.08 | 0.00 | 84 | 1018.5 |
| 20260903133518 | 22 | 225 | 12.9 | 29.0 | 0.00 | 0.08 | 0.00 | 84 | 1018.5 |
| 20260903132515 | 22 | 248 | 11.3 | 24.1 | 0.00 | 0.08 | 0.00 | 84 | 1018.6 |
| 20260903131539 | 22 | 225 | 14.5 | 25.7 | 0.00 | 0.08 | 0.00 | 83 | 1018.6 |
| 20260903130517 | 23 | 225 | 14.5 | 29.0 | 0.00 | 0.08 | 0.00 | 82 | 1018.7 |
| 20260903125517 | 23 | 225 | 17.7 | 30.6 | 0.00 | 0.08 | 0.00 | 83 | 1018.7 |
| 20260903124517 | 22 | 225 | 14.5 | 32.2 | 0.00 | 0.08 | 0.00 | 84 | 1018.9 |
| 20260903123515 | 22 | 248 | 14.5 | 24.1 | 0.00 | 0.08 | 0.00 | 84 | 1018.9 |
| 20260903122517 | 22 | 248 | 14.5 | 29.0 | 0.00 | 0.08 | 0.00 | 84 | 1018.9 |
| 20260903121517 | 22 | 248 | 12.9 | 25.7 | 0.00 | 0.08 | 0.00 | 85 | 1018.9 |
| 20260903120515 | 22 | 248 | 12.9 | 20.9 | 0.00 | 0.08 | 0.00 | 85 | 1018.7 |
| 20260903115515 | 22 | 248 | 11.3 | 22.5 | 0.00 | 0.08 | 0.00 | 85 | 1018.6 |
| 20260903114515 | 22 | 248 | 11.3 | 25.7 | 0.00 | 0.08 | 0.00 | 85 | 1018.6 |
| 20260903113515 | 22 | 248 | 12.9 | 25.7 | 0.00 | 0.08 | 0.00 | 84 | 1018.8 |
| 20260903112515 | 22 | 248 | 11.3 | 24.1 | 0.00 | 0.08 | 0.00 | 84 | 1019.0 |
| 20260903111535 | 22 | 270 | 12.9 | 27.4 | 0.00 | 0.08 | 0.00 | 82 | 1019.0 |
| 20260903110515 | 23 | 248 | 11.3 | 22.5 | 0.00 | 0.08 | 0.00 | 80 | 1019.0 |
| 20260903105517 | 23 | 248 | 14.5 | 25.7 | 0.00 | 0.08 | 0.00 | 80 | 1018.9 |
| 20260903104517 | 23 | 248 | 11.3 | 25.7 | 0.00 | 0.08 | 0.00 | 78 | 1018.9 |
| 20260903103540 | 23 | 248 | 9.7 | 20.9 | 0.00 | 0.08 | 0.00 | 77 | 1018.9 |
| 20260903102537 | 23 | 248 | 11.3 | 22.5 | 0.00 | 0.08 | 0.00 | 78 | 1018.9 |
| 20260903101517 | 23 | 248 | 11.3 | 24.1 | 0.00 | 0.08 | 0.00 | 79 | 1018.8 |
| 20260903100517 | 22 | 270 | 9.7 | 22.5 | 0.00 | 0.08 | 0.00 | 81 | 1018.8 |
| 20260903095520 | 22 | 248 | 8.0 | 17.7 | 0.00 | 0.08 | 0.00 | 84 | 1018.9 |
| 20260903094519 | 21 | 270 | 11.3 | 27.4 | 0.00 | 0.08 | 0.00 | 86 | 1018.8 |
| 20260903093518 | 21 | 248 | 8.0 | 19.3 | 0.00 | 0.08 | 0.00 | 87 | 1018.8 |
| 20260903092517 | 21 | 248 | 8.0 | 20.9 | 0.00 | 0.08 | 0.00 | 87 | 1018.6 |
| 20260903091537 | 21 | 293 | 8.0 | 22.5 | 0.00 | 0.08 | 0.00 | 87 | 1018.8 |
| 20260903090519 | 21 | 270 | 9.7 | 22.5 | 0.00 | 0.08 | 0.00 | 86 | 1018.9 |
| 20260903085519 | 21 | 248 | 9.7 | 22.5 | 0.00 | 0.08 | 0.00 | 85 | 1018.7 |
| 20260903084515 | 22 | 248 | 9.7 | 22.5 | 0.00 | 0.08 | 0.00 | 85 | 1018.6 |
| 20260903083517 | 22 | 248 | 11.3 | 22.5 | 0.00 | 0.08 | 0.00 | 85 | 1018.5 |
| 20260903082518 | 21 | 248 | 14.5 | 24.1 | 0.00 | 0.08 | 0.00 | 86 | 1018.5 |
| 20260903081537 | 21 | 248 | 14.5 | 22.5 | 0.00 | 0.08 | 0.00 | 87 | 1018.3 |
| 20260903080517 | 21 | 248 | 9.7 | 19.3 | 0.00 | 0.08 | 0.00 | 88 | 1018.4 |
| 20260903075537 | 21 | 248 | 11.3 | 22.5 | 0.00 | 0.08 | 0.00 | 89 | 1018.3 |
| 20260903074517 | 20 | 248 | 9.7 | 17.7 | 0.00 | 0.08 | 0.00 | 92 | 1018.2 |
| 20260903073517 | 20 | 248 | 9.7 | 20.9 | 0.00 | 0.08 | 0.00 | 92 | 1018.2 |
| 20260903072518 | 20 | 248 | 9.7 | 20.9 | 0.00 | 0.08 | 0.00 | 92 | 1018.1 |
| 20260903071538 | 20 | 270 | 11.3 | 22.5 | 0.00 | 0.08 | 0.00 | 92 | 1018.3 |
| 20260903070539 | 20 | 225 | 8.0 | 17.7 | 0.00 | 0.08 | 0.00 | 92 | 1018.2 |
| 20260903065518 | 20 | 248 | 8.0 | 14.5 | 0.00 | 0.08 | 0.00 | 92 | 1018.2 |
| 20260903064538 | 20 | 248 | 9.7 | 17.7 | 0.00 | 0.08 | 0.00 | 93 | 1018.3 |
| 20260903063518 | 19 | 248 | 6.4 | 17.7 | 0.00 | 0.08 | 0.00 | 93 | 1018.1 |
| 20260903062518 | 19 | 248 | 8.0 | 20.9 | 0.00 | 0.08 | 0.00 | 93 | 1018.1 |
| 20260903061517 | 19 | 248 | 8.0 | 16.1 | 0.00 | 0.08 | 0.00 | 93 | 1017.9 |
| 20260903060517 | 19 | 248 | 8.0 | 17.7 | 0.00 | 0.08 | 0.00 | 93 | 1018.0 |
| 20260903055518 | 19 | 248 | 8.0 | 17.7 | 0.00 | 0.08 | 0.00 | 92 | 1017.9 |
| 20260903054517 | 19 | 248 | 8.0 | 17.7 | 0.00 | 0.08 | 0.00 | 92 | 1018.0 |
| 20260903053518 | 19 | 293 | 9.7 | 17.7 | 0.00 | 0.08 | 0.00 | 92 | 1018.0 |